Aviation Digital Data Service (ADDS)

Output produced by TAFs form (1026 UTC 20 July 2018)
found at http://aviationweather.gov/adds/tafs/
 
KSVH 201015Z AUTO 00000KT 10SM CLR 21/18 A3005 RMK AO2 T02140179